sensor_id;sensor_type;location;lat;lon;timestamp;P1;durP1;ratioP1;P2;durP2;ratioP2
8279;SDS011;8335;42.646;23.380;2022-11-18T00:02:05;32.23;;;16.33;;
8279;SDS011;8335;42.646;23.380;2022-11-18T00:04:31;24.40;;;16.23;;
8279;SDS011;8335;42.646;23.380;2022-11-18T00:06:58;25.47;;;17.57;;
8279;SDS011;8335;42.646;23.380;2022-11-18T00:09:25;22.57;;;15.60;;
8279;SDS011;8335;42.646;23.380;2022-11-18T00:11:51;26.07;;;16.07;;
8279;SDS011;8335;42.646;23.380;2022-11-18T00:14:37;24.77;;;16.60;;
8279;SDS011;8335;42.646;23.380;2022-11-18T00:17:04;25.10;;;16.73;;
8279;SDS011;8335;42.646;23.380;2022-11-18T00:19:32;31.50;;;17.30;;
8279;SDS011;8335;42.646;23.380;2022-11-18T00:22:00;27.60;;;18.83;;
8279;SDS011;8335;42.646;23.380;2022-11-18T00:24:27;25.40;;;17.63;;
8279;SDS011;8335;42.646;23.380;2022-11-18T00:26:54;27.23;;;18.10;;
8279;SDS011;8335;42.646;23.380;2022-11-18T00:29:22;25.67;;;17.20;;
8279;SDS011;8335;42.646;23.380;2022-11-18T00:31:52;24.80;;;16.57;;
8279;SDS011;8335;42.646;23.380;2022-11-18T00:34:19;32.73;;;16.83;;
8279;SDS011;8335;42.646;23.380;2022-11-18T00:36:46;27.73;;;17.17;;
8279;SDS011;8335;42.646;23.380;2022-11-18T00:39:13;26.97;;;16.93;;
8279;SDS011;8335;42.646;23.380;2022-11-18T00:41:42;26.53;;;17.03;;
8279;SDS011;8335;42.646;23.380;2022-11-18T00:44:27;25.43;;;16.80;;
8279;SDS011;8335;42.646;23.380;2022-11-18T00:46:55;25.97;;;16.83;;
8279;SDS011;8335;42.646;23.380;2022-11-18T00:49:22;27.23;;;17.97;;
8279;SDS011;8335;42.646;23.380;2022-11-18T00:51:49;22.83;;;15.90;;
8279;SDS011;8335;42.646;23.380;2022-11-18T00:54:16;27.20;;;16.47;;
8279;SDS011;8335;42.646;23.380;2022-11-18T00:56:43;25.53;;;16.53;;
8279;SDS011;8335;42.646;23.380;2022-11-18T00:59:10;23.53;;;15.77;;
8279;SDS011;8335;42.646;23.380;2022-11-18T01:01:36;24.07;;;15.87;;
8279;SDS011;8335;42.646;23.380;2022-11-18T01:04:04;24.83;;;16.00;;
8279;SDS011;8335;42.646;23.380;2022-11-18T01:06:31;28.80;;;16.60;;
8279;SDS011;8335;42.646;23.380;2022-11-18T01:08:58;26.70;;;16.80;;
8279;SDS011;8335;42.646;23.380;2022-11-18T01:11:25;26.23;;;17.00;;
8279;SDS011;8335;42.646;23.380;2022-11-18T01:14:09;26.50;;;17.00;;
8279;SDS011;8335;42.646;23.380;2022-11-18T01:16:36;25.80;;;16.97;;
8279;SDS011;8335;42.646;23.380;2022-11-18T01:19:04;25.53;;;16.20;;
8279;SDS011;8335;42.646;23.380;2022-11-18T01:21:31;24.17;;;16.47;;
8279;SDS011;8335;42.646;23.380;2022-11-18T01:23:58;23.50;;;16.40;;
8279;SDS011;8335;42.646;23.380;2022-11-18T01:26:25;25.53;;;16.50;;
8279;SDS011;8335;42.646;23.380;2022-11-18T01:28:53;36.00;;;17.63;;
8279;SDS011;8335;42.646;23.380;2022-11-18T01:31:21;27.30;;;17.33;;
8279;SDS011;8335;42.646;23.380;2022-11-18T01:33:48;24.97;;;17.33;;
8279;SDS011;8335;42.646;23.380;2022-11-18T01:36:17;28.93;;;17.93;;
8279;SDS011;8335;42.646;23.380;2022-11-18T01:38:46;25.60;;;17.83;;
8279;SDS011;8335;42.646;23.380;2022-11-18T01:41:13;29.17;;;19.20;;
8279;SDS011;8335;42.646;23.380;2022-11-18T01:43:48;25.60;;;17.23;;
8279;SDS011;8335;42.646;23.380;2022-11-18T01:46:16;26.30;;;17.20;;
8279;SDS011;8335;42.646;23.380;2022-11-18T01:48:44;24.90;;;17.20;;
8279;SDS011;8335;42.646;23.380;2022-11-18T01:51:15;27.73;;;18.23;;
8279;SDS011;8335;42.646;23.380;2022-11-18T01:53:47;32.37;;;17.83;;
8279;SDS011;8335;42.646;23.380;2022-11-18T01:56:19;28.43;;;17.07;;
8279;SDS011;8335;42.646;23.380;2022-11-18T01:58:49;26.43;;;18.07;;
8279;SDS011;8335;42.646;23.380;2022-11-18T02:01:19;30.73;;;18.57;;
8279;SDS011;8335;42.646;23.380;2022-11-18T02:03:46;28.93;;;17.93;;
8279;SDS011;8335;42.646;23.380;2022-11-18T02:06:14;26.90;;;17.73;;
8279;SDS011;8335;42.646;23.380;2022-11-18T02:08:43;30.13;;;19.60;;
8279;SDS011;8335;42.646;23.380;2022-11-18T02:11:11;32.47;;;18.43;;
8279;SDS011;8335;42.646;23.380;2022-11-18T02:13:59;26.47;;;18.03;;
8279;SDS011;8335;42.646;23.380;2022-11-18T02:16:31;25.87;;;18.20;;
8279;SDS011;8335;42.646;23.380;2022-11-18T02:19:06;29.77;;;19.03;;
8279;SDS011;8335;42.646;23.380;2022-11-18T02:21:49;33.37;;;19.77;;
8279;SDS011;8335;42.646;23.380;2022-11-18T02:24:30;33.63;;;19.30;;
8279;SDS011;8335;42.646;23.380;2022-11-18T02:27:18;34.50;;;19.87;;
8279;SDS011;8335;42.646;23.380;2022-11-18T02:30:02;30.47;;;20.17;;
8279;SDS011;8335;42.646;23.380;2022-11-18T02:32:33;29.43;;;19.83;;
8279;SDS011;8335;42.646;23.380;2022-11-18T02:35:07;40.00;;;22.27;;
8279;SDS011;8335;42.646;23.380;2022-11-18T02:37:40;42.30;;;21.80;;
8279;SDS011;8335;42.646;23.380;2022-11-18T02:40:11;41.63;;;23.40;;
8279;SDS011;8335;42.646;23.380;2022-11-18T02:42:42;34.27;;;21.47;;
8279;SDS011;8335;42.646;23.380;2022-11-18T02:45:14;43.77;;;22.33;;
8279;SDS011;8335;42.646;23.380;2022-11-18T02:47:45;45.20;;;23.23;;
8279;SDS011;8335;42.646;23.380;2022-11-18T02:50:15;47.20;;;22.70;;
8279;SDS011;8335;42.646;23.380;2022-11-18T02:52:46;45.83;;;24.13;;
8279;SDS011;8335;42.646;23.380;2022-11-18T02:55:18;50.17;;;25.37;;
8279;SDS011;8335;42.646;23.380;2022-11-18T02:57:47;47.03;;;25.30;;
8279;SDS011;8335;42.646;23.380;2022-11-18T03:02:45;42.23;;;23.53;;
8279;SDS011;8335;42.646;23.380;2022-11-18T03:05:15;39.70;;;21.73;;
8279;SDS011;8335;42.646;23.380;2022-11-18T03:07:49;37.23;;;21.83;;
8279;SDS011;8335;42.646;23.380;2022-11-18T03:10:19;36.07;;;21.37;;
8279;SDS011;8335;42.646;23.380;2022-11-18T03:12:51;32.23;;;20.57;;
8279;SDS011;8335;42.646;23.380;2022-11-18T03:15:28;33.10;;;21.03;;
8279;SDS011;8335;42.646;23.380;2022-11-18T03:18:05;31.37;;;19.23;;
8279;SDS011;8335;42.646;23.380;2022-11-18T03:20:41;30.63;;;19.80;;
8279;SDS011;8335;42.646;23.380;2022-11-18T03:23:13;41.00;;;21.03;;
8279;SDS011;8335;42.646;23.380;2022-11-18T03:25:48;35.63;;;20.90;;
8279;SDS011;8335;42.646;23.380;2022-11-18T03:28:21;36.43;;;21.17;;
8279;SDS011;8335;42.646;23.380;2022-11-18T03:30:55;34.27;;;21.57;;
8279;SDS011;8335;42.646;23.380;2022-11-18T03:33:29;36.97;;;21.40;;
8279;SDS011;8335;42.646;23.380;2022-11-18T03:36:00;33.70;;;21.30;;
8279;SDS011;8335;42.646;23.380;2022-11-18T03:38:33;33.90;;;20.73;;
8279;SDS011;8335;42.646;23.380;2022-11-18T03:41:05;35.23;;;21.23;;
8279;SDS011;8335;42.646;23.380;2022-11-18T03:43:36;32.07;;;21.20;;
8279;SDS011;8335;42.646;23.380;2022-11-18T03:46:08;37.33;;;24.07;;
8279;SDS011;8335;42.646;23.380;2022-11-18T03:48:40;38.77;;;23.60;;
8279;SDS011;8335;42.646;23.380;2022-11-18T03:51:13;47.13;;;22.83;;
8279;SDS011;8335;42.646;23.380;2022-11-18T03:53:44;86.40;;;27.83;;
8279;SDS011;8335;42.646;23.380;2022-11-18T03:56:18;59.60;;;27.70;;
8279;SDS011;8335;42.646;23.380;2022-11-18T03:58:49;216.40;;;33.40;;
8279;SDS011;8335;42.646;23.380;2022-11-18T04:01:23;246.60;;;34.77;;
8279;SDS011;8335;42.646;23.380;2022-11-18T04:03:53;214.30;;;32.63;;
8279;SDS011;8335;42.646;23.380;2022-11-18T04:06:22;205.77;;;33.30;;
8279;SDS011;8335;42.646;23.380;2022-11-18T04:08:55;246.83;;;36.47;;
8279;SDS011;8335;42.646;23.380;2022-11-18T04:11:26;212.10;;;33.30;;
8279;SDS011;8335;42.646;23.380;2022-11-18T04:14:15;217.73;;;31.47;;
8279;SDS011;8335;42.646;23.380;2022-11-18T04:16:48;235.77;;;33.57;;
8279;SDS011;8335;42.646;23.380;2022-11-18T04:19:16;235.93;;;34.43;;
8279;SDS011;8335;42.646;23.380;2022-11-18T04:21:43;203.00;;;33.37;;
8279;SDS011;8335;42.646;23.380;2022-11-18T04:24:10;221.37;;;34.47;;
8279;SDS011;8335;42.646;23.380;2022-11-18T04:26:36;190.77;;;33.00;;
8279;SDS011;8335;42.646;23.380;2022-11-18T04:29:04;220.23;;;31.73;;
8279;SDS011;8335;42.646;23.380;2022-11-18T04:31:31;231.83;;;33.63;;
8279;SDS011;8335;42.646;23.380;2022-11-18T04:33:59;253.27;;;36.27;;
8279;SDS011;8335;42.646;23.380;2022-11-18T04:36:26;207.90;;;34.10;;
8279;SDS011;8335;42.646;23.380;2022-11-18T04:38:53;191.63;;;33.17;;
8279;SDS011;8335;42.646;23.380;2022-11-18T04:41:19;254.53;;;33.70;;
8279;SDS011;8335;42.646;23.380;2022-11-18T04:44:06;204.10;;;33.93;;
8279;SDS011;8335;42.646;23.380;2022-11-18T04:46:37;236.13;;;34.07;;
8279;SDS011;8335;42.646;23.380;2022-11-18T04:49:05;141.67;;;29.63;;
8279;SDS011;8335;42.646;23.380;2022-11-18T04:51:32;270.50;;;34.03;;
8279;SDS011;8335;42.646;23.380;2022-11-18T04:53:59;260.87;;;33.40;;
8279;SDS011;8335;42.646;23.380;2022-11-18T04:56:26;222.63;;;33.00;;
8279;SDS011;8335;42.646;23.380;2022-11-18T04:58:53;155.80;;;31.17;;
8279;SDS011;8335;42.646;23.380;2022-11-18T05:01:19;264.77;;;34.47;;
8279;SDS011;8335;42.646;23.380;2022-11-18T05:03:46;268.80;;;34.97;;
8279;SDS011;8335;42.646;23.380;2022-11-18T05:06:14;244.67;;;33.80;;
8279;SDS011;8335;42.646;23.380;2022-11-18T05:08:41;168.07;;;32.90;;
8279;SDS011;8335;42.646;23.380;2022-11-18T05:11:08;125.20;;;31.23;;
8279;SDS011;8335;42.646;23.380;2022-11-18T05:13:58;118.23;;;31.23;;
8279;SDS011;8335;42.646;23.380;2022-11-18T05:16:25;162.20;;;31.90;;
8279;SDS011;8335;42.646;23.380;2022-11-18T05:18:51;191.23;;;30.33;;
8279;SDS011;8335;42.646;23.380;2022-11-18T05:21:19;90.13;;;28.47;;
8279;SDS011;8335;42.646;23.380;2022-11-18T05:23:46;73.47;;;27.23;;
8279;SDS011;8335;42.646;23.380;2022-11-18T05:26:13;126.20;;;31.97;;
8279;SDS011;8335;42.646;23.380;2022-11-18T05:28:40;201.13;;;33.03;;
8279;SDS011;8335;42.646;23.380;2022-11-18T05:31:07;131.33;;;31.93;;
8279;SDS011;8335;42.646;23.380;2022-11-18T05:33:34;86.03;;;28.00;;
8279;SDS011;8335;42.646;23.380;2022-11-18T05:36:04;133.00;;;28.50;;
8279;SDS011;8335;42.646;23.380;2022-11-18T05:38:33;150.53;;;31.50;;
8279;SDS011;8335;42.646;23.380;2022-11-18T05:41:00;83.07;;;27.90;;
8279;SDS011;8335;42.646;23.380;2022-11-18T05:43:28;120.83;;;29.70;;
8279;SDS011;8335;42.646;23.380;2022-11-18T05:45:55;131.53;;;29.93;;
8279;SDS011;8335;42.646;23.380;2022-11-18T05:48:22;64.67;;;27.77;;
8279;SDS011;8335;42.646;23.380;2022-11-18T05:50:49;146.17;;;30.37;;
8279;SDS011;8335;42.646;23.380;2022-11-18T05:53:18;176.20;;;31.13;;
8279;SDS011;8335;42.646;23.380;2022-11-18T05:55:49;96.60;;;29.23;;
8279;SDS011;8335;42.646;23.380;2022-11-18T05:58:19;89.90;;;28.40;;
8279;SDS011;8335;42.646;23.380;2022-11-18T06:00:46;160.07;;;31.70;;
8279;SDS011;8335;42.646;23.380;2022-11-18T06:03:16;226.20;;;30.30;;
8279;SDS011;8335;42.646;23.380;2022-11-18T06:05:46;159.40;;;30.73;;
8279;SDS011;8335;42.646;23.380;2022-11-18T06:08:14;170.13;;;28.77;;
8279;SDS011;8335;42.646;23.380;2022-11-18T06:10:43;242.23;;;28.00;;
8279;SDS011;8335;42.646;23.380;2022-11-18T06:13:15;98.47;;;26.23;;
8279;SDS011;8335;42.646;23.380;2022-11-18T06:15:45;215.03;;;30.83;;
8279;SDS011;8335;42.646;23.380;2022-11-18T06:18:15;142.17;;;26.70;;
8279;SDS011;8335;42.646;23.380;2022-11-18T06:20:45;206.10;;;29.63;;
8279;SDS011;8335;42.646;23.380;2022-11-18T06:23:12;161.77;;;28.80;;
8279;SDS011;8335;42.646;23.380;2022-11-18T06:25:39;148.37;;;27.77;;
8279;SDS011;8335;42.646;23.380;2022-11-18T06:28:07;182.20;;;29.50;;
8279;SDS011;8335;42.646;23.380;2022-11-18T06:30:37;158.83;;;27.70;;
8279;SDS011;8335;42.646;23.380;2022-11-18T06:33:04;116.23;;;25.27;;
8279;SDS011;8335;42.646;23.380;2022-11-18T06:35:30;208.93;;;30.07;;
8279;SDS011;8335;42.646;23.380;2022-11-18T06:37:57;212.73;;;28.97;;
8279;SDS011;8335;42.646;23.380;2022-11-18T06:40:24;219.47;;;26.93;;
8279;SDS011;8335;42.646;23.380;2022-11-18T06:42:51;232.23;;;28.30;;
8279;SDS011;8335;42.646;23.380;2022-11-18T06:45:42;208.33;;;26.93;;
8279;SDS011;8335;42.646;23.380;2022-11-18T06:48:30;330.80;;;26.57;;
8279;SDS011;8335;42.646;23.380;2022-11-18T06:50:57;304.63;;;29.50;;
8279;SDS011;8335;42.646;23.380;2022-11-18T06:53:24;299.20;;;28.07;;
8279;SDS011;8335;42.646;23.380;2022-11-18T06:55:50;350.50;;;28.07;;
8279;SDS011;8335;42.646;23.380;2022-11-18T06:58:17;348.90;;;28.23;;
8279;SDS011;8335;42.646;23.380;2022-11-18T07:00:45;305.93;;;29.27;;
8279;SDS011;8335;42.646;23.380;2022-11-18T07:03:12;178.90;;;24.77;;
8279;SDS011;8335;42.646;23.380;2022-11-18T07:05:39;121.90;;;22.73;;
8279;SDS011;8335;42.646;23.380;2022-11-18T07:08:05;118.50;;;22.23;;
8279;SDS011;8335;42.646;23.380;2022-11-18T07:10:32;142.33;;;24.43;;
8279;SDS011;8335;42.646;23.380;2022-11-18T07:12:59;163.03;;;25.37;;
8279;SDS011;8335;42.646;23.380;2022-11-18T07:15:26;338.67;;;28.90;;
8279;SDS011;8335;42.646;23.380;2022-11-18T07:17:54;124.43;;;23.80;;
8279;SDS011;8335;42.646;23.380;2022-11-18T07:20:20;214.60;;;26.37;;
8279;SDS011;8335;42.646;23.380;2022-11-18T07:22:49;124.93;;;23.17;;
8279;SDS011;8335;42.646;23.380;2022-11-18T07:25:17;213.57;;;24.13;;
8279;SDS011;8335;42.646;23.380;2022-11-18T07:27:44;190.50;;;23.50;;
8279;SDS011;8335;42.646;23.380;2022-11-18T07:30:11;187.50;;;23.67;;
8279;SDS011;8335;42.646;23.380;2022-11-18T07:32:39;121.03;;;21.60;;
8279;SDS011;8335;42.646;23.380;2022-11-18T07:35:07;162.50;;;24.70;;
8279;SDS011;8335;42.646;23.380;2022-11-18T07:37:34;201.23;;;31.13;;
8279;SDS011;8335;42.646;23.380;2022-11-18T07:40:01;152.97;;;28.03;;
8279;SDS011;8335;42.646;23.380;2022-11-18T07:42:28;172.87;;;29.97;;
8279;SDS011;8335;42.646;23.380;2022-11-18T07:45:07;163.90;;;27.83;;
8279;SDS011;8335;42.646;23.380;2022-11-18T07:47:34;105.03;;;24.47;;
8279;SDS011;8335;42.646;23.380;2022-11-18T07:50:01;104.60;;;24.13;;
8279;SDS011;8335;42.646;23.380;2022-11-18T07:52:30;78.90;;;21.10;;
8279;SDS011;8335;42.646;23.380;2022-11-18T07:54:57;71.83;;;22.10;;
8279;SDS011;8335;42.646;23.380;2022-11-18T07:57:23;114.17;;;25.57;;
8279;SDS011;8335;42.646;23.380;2022-11-18T07:59:50;51.07;;;22.57;;
8279;SDS011;8335;42.646;23.380;2022-11-18T08:02:17;59.13;;;23.70;;
8279;SDS011;8335;42.646;23.380;2022-11-18T08:04:44;66.20;;;22.07;;
8279;SDS011;8335;42.646;23.380;2022-11-18T08:07:10;56.43;;;22.20;;
8279;SDS011;8335;42.646;23.380;2022-11-18T08:09:39;50.53;;;21.93;;
8279;SDS011;8335;42.646;23.380;2022-11-18T08:12:06;48.97;;;23.10;;
8279;SDS011;8335;42.646;23.380;2022-11-18T08:14:33;46.30;;;22.03;;
8279;SDS011;8335;42.646;23.380;2022-11-18T08:16:59;46.97;;;22.47;;
8279;SDS011;8335;42.646;23.380;2022-11-18T08:19:26;51.17;;;22.27;;
8279;SDS011;8335;42.646;23.380;2022-11-18T08:21:53;48.17;;;23.33;;
8279;SDS011;8335;42.646;23.380;2022-11-18T08:24:20;53.93;;;23.27;;
8279;SDS011;8335;42.646;23.380;2022-11-18T08:26:48;56.10;;;24.13;;
8279;SDS011;8335;42.646;23.380;2022-11-18T08:29:15;47.63;;;23.70;;
8279;SDS011;8335;42.646;23.380;2022-11-18T08:31:41;47.93;;;23.73;;
8279;SDS011;8335;42.646;23.380;2022-11-18T08:34:08;51.73;;;25.23;;
8279;SDS011;8335;42.646;23.380;2022-11-18T08:36:36;45.70;;;22.73;;
8279;SDS011;8335;42.646;23.380;2022-11-18T08:39:04;33.37;;;18.97;;
8279;SDS011;8335;42.646;23.380;2022-11-18T08:41:32;38.43;;;20.63;;
8279;SDS011;8335;42.646;23.380;2022-11-18T08:44:02;44.53;;;20.53;;
8279;SDS011;8335;42.646;23.380;2022-11-18T08:46:30;33.17;;;17.23;;
8279;SDS011;8335;42.646;23.380;2022-11-18T08:48:57;31.37;;;17.77;;
8279;SDS011;8335;42.646;23.380;2022-11-18T08:51:24;26.93;;;16.00;;
8279;SDS011;8335;42.646;23.380;2022-11-18T08:53:51;26.83;;;17.03;;
8279;SDS011;8335;42.646;23.380;2022-11-18T08:56:18;30.27;;;17.67;;
8279;SDS011;8335;42.646;23.380;2022-11-18T08:58:46;37.40;;;18.67;;
8279;SDS011;8335;42.646;23.380;2022-11-18T09:01:15;38.97;;;19.80;;
8279;SDS011;8335;42.646;23.380;2022-11-18T09:03:42;28.47;;;17.03;;
8279;SDS011;8335;42.646;23.380;2022-11-18T09:06:10;33.53;;;18.47;;
8279;SDS011;8335;42.646;23.380;2022-11-18T09:08:39;40.30;;;18.87;;
8279;SDS011;8335;42.646;23.380;2022-11-18T09:11:06;45.00;;;22.93;;
8279;SDS011;8335;42.646;23.380;2022-11-18T09:13:34;48.57;;;24.03;;
8279;SDS011;8335;42.646;23.380;2022-11-18T09:16:01;48.17;;;24.87;;
8279;SDS011;8335;42.646;23.380;2022-11-18T09:18:29;45.37;;;23.13;;
8279;SDS011;8335;42.646;23.380;2022-11-18T09:20:58;38.20;;;20.90;;
8279;SDS011;8335;42.646;23.380;2022-11-18T09:23:26;35.90;;;19.13;;
8279;SDS011;8335;42.646;23.380;2022-11-18T09:25:56;41.40;;;21.67;;
8279;SDS011;8335;42.646;23.380;2022-11-18T09:28:24;44.03;;;22.13;;
8279;SDS011;8335;42.646;23.380;2022-11-18T09:30:52;45.83;;;24.00;;
8279;SDS011;8335;42.646;23.380;2022-11-18T09:33:19;49.00;;;25.53;;
8279;SDS011;8335;42.646;23.380;2022-11-18T09:35:47;58.93;;;30.10;;
8279;SDS011;8335;42.646;23.380;2022-11-18T09:38:14;63.37;;;31.80;;
8279;SDS011;8335;42.646;23.380;2022-11-18T09:40:42;61.17;;;31.93;;
8279;SDS011;8335;42.646;23.380;2022-11-18T09:43:19;66.23;;;33.17;;
8279;SDS011;8335;42.646;23.380;2022-11-18T09:45:55;66.87;;;33.57;;
8279;SDS011;8335;42.646;23.380;2022-11-18T09:48:28;67.43;;;33.00;;
8279;SDS011;8335;42.646;23.380;2022-11-18T09:51:11;66.57;;;31.93;;
8279;SDS011;8335;42.646;23.380;2022-11-18T09:53:38;66.93;;;30.97;;
8279;SDS011;8335;42.646;23.380;2022-11-18T09:56:11;62.13;;;30.77;;
8279;SDS011;8335;42.646;23.380;2022-11-18T09:58:40;50.50;;;24.90;;
8279;SDS011;8335;42.646;23.380;2022-11-18T10:01:09;42.20;;;19.60;;
8279;SDS011;8335;42.646;23.380;2022-11-18T10:03:38;35.43;;;19.93;;
8279;SDS011;8335;42.646;23.380;2022-11-18T10:06:10;36.97;;;20.57;;
8279;SDS011;8335;42.646;23.380;2022-11-18T10:08:43;41.40;;;20.60;;
8279;SDS011;8335;42.646;23.380;2022-11-18T10:11:22;37.40;;;19.77;;
8279;SDS011;8335;42.646;23.380;2022-11-18T10:13:53;47.83;;;23.73;;
8279;SDS011;8335;42.646;23.380;2022-11-18T10:16:28;41.53;;;23.87;;
8279;SDS011;8335;42.646;23.380;2022-11-18T10:19:09;49.30;;;24.50;;
8279;SDS011;8335;42.646;23.380;2022-11-18T10:21:49;42.80;;;24.00;;
8279;SDS011;8335;42.646;23.380;2022-11-18T10:24:23;45.33;;;24.33;;
8279;SDS011;8335;42.646;23.380;2022-11-18T10:26:53;42.60;;;22.93;;
8279;SDS011;8335;42.646;23.380;2022-11-18T10:29:21;41.27;;;22.23;;
8279;SDS011;8335;42.646;23.380;2022-11-18T10:31:52;41.63;;;22.40;;
8279;SDS011;8335;42.646;23.380;2022-11-18T10:34:22;39.33;;;20.70;;
8279;SDS011;8335;42.646;23.380;2022-11-18T10:36:58;28.40;;;16.77;;
8279;SDS011;8335;42.646;23.380;2022-11-18T10:39:26;28.80;;;14.60;;
8279;SDS011;8335;42.646;23.380;2022-11-18T10:41:55;40.07;;;22.80;;
8279;SDS011;8335;42.646;23.380;2022-11-18T10:44:35;44.43;;;22.43;;
8279;SDS011;8335;42.646;23.380;2022-11-18T10:49:57;12.38;;;6.85;;
8279;SDS011;8335;42.646;23.380;2022-11-18T10:52:26;60.17;;;24.90;;
8279;SDS011;8335;42.646;23.380;2022-11-18T10:55:04;61.43;;;30.03;;
8279;SDS011;8335;42.646;23.380;2022-11-18T10:57:46;41.27;;;20.97;;
8279;SDS011;8335;42.646;23.380;2022-11-18T11:06:27;52.20;;;28.50;;
8279;SDS011;8335;42.646;23.380;2022-11-18T11:09:05;56.20;;;29.60;;
8279;SDS011;8335;42.646;23.380;2022-11-18T11:11:55;54.87;;;27.53;;
8279;SDS011;8335;42.646;23.380;2022-11-18T11:14:25;52.13;;;27.07;;
8279;SDS011;8335;42.646;23.380;2022-11-18T11:16:58;55.97;;;27.87;;
8279;SDS011;8335;42.646;23.380;2022-11-18T11:19:31;60.67;;;29.90;;
8279;SDS011;8335;42.646;23.380;2022-11-18T11:22:06;59.33;;;28.20;;
8279;SDS011;8335;42.646;23.380;2022-11-18T11:24:36;49.80;;;24.93;;
8279;SDS011;8335;42.646;23.380;2022-11-18T11:27:05;50.47;;;25.50;;
8279;SDS011;8335;42.646;23.380;2022-11-18T11:29:51;57.87;;;26.23;;
8279;SDS011;8335;42.646;23.380;2022-11-18T11:32:29;55.07;;;26.70;;
8279;SDS011;8335;42.646;23.380;2022-11-18T11:35:08;57.33;;;27.10;;
8279;SDS011;8335;42.646;23.380;2022-11-18T11:37:45;55.60;;;26.77;;
8279;SDS011;8335;42.646;23.380;2022-11-18T11:40:24;48.80;;;25.33;;
8279;SDS011;8335;42.646;23.380;2022-11-18T11:43:09;44.40;;;23.83;;
8279;SDS011;8335;42.646;23.380;2022-11-18T11:45:58;54.27;;;26.93;;
8279;SDS011;8335;42.646;23.380;2022-11-18T11:48:39;54.10;;;28.60;;
8279;SDS011;8335;42.646;23.380;2022-11-18T11:51:18;52.77;;;27.07;;
8279;SDS011;8335;42.646;23.380;2022-11-18T11:54:03;44.43;;;21.77;;
8279;SDS011;8335;42.646;23.380;2022-11-18T11:56:43;49.60;;;23.57;;
8279;SDS011;8335;42.646;23.380;2022-11-18T11:59:18;40.90;;;21.20;;
8279;SDS011;8335;42.646;23.380;2022-11-18T12:01:57;40.73;;;20.40;;
8279;SDS011;8335;42.646;23.380;2022-11-18T12:04:39;41.43;;;19.60;;
8279;SDS011;8335;42.646;23.380;2022-11-18T12:07:11;46.30;;;21.07;;
8279;SDS011;8335;42.646;23.380;2022-11-18T12:09:44;38.47;;;20.93;;
8279;SDS011;8335;42.646;23.380;2022-11-18T12:12:26;41.53;;;20.13;;
8279;SDS011;8335;42.646;23.380;2022-11-18T12:17:57;35.63;;;17.90;;
8279;SDS011;8335;42.646;23.380;2022-11-18T12:20:41;42.17;;;19.57;;
8279;SDS011;8335;42.646;23.380;2022-11-18T12:23:10;34.93;;;19.20;;
8279;SDS011;8335;42.646;23.380;2022-11-18T12:25:52;40.33;;;20.53;;
8279;SDS011;8335;42.646;23.380;2022-11-18T12:28:26;45.30;;;21.67;;
8279;SDS011;8335;42.646;23.380;2022-11-18T12:34:17;35.47;;;17.40;;
8279;SDS011;8335;42.646;23.380;2022-11-18T12:36:54;33.00;;;18.20;;
8279;SDS011;8335;42.646;23.380;2022-11-18T12:54:14;43.73;;;20.93;;
8279;SDS011;8335;42.646;23.380;2022-11-18T12:56:53;41.30;;;20.47;;
8279;SDS011;8335;42.646;23.380;2022-11-18T12:59:27;39.57;;;20.30;;
8279;SDS011;8335;42.646;23.380;2022-11-18T13:02:05;26.37;;;15.43;;
8279;SDS011;8335;42.646;23.380;2022-11-18T13:04:42;27.17;;;16.10;;
8279;SDS011;8335;42.646;23.380;2022-11-18T13:07:09;27.57;;;14.67;;
8279;SDS011;8335;42.646;23.380;2022-11-18T13:09:58;27.70;;;15.40;;
8279;SDS011;8335;42.646;23.380;2022-11-18T13:12:28;23.80;;;14.60;;
8279;SDS011;8335;42.646;23.380;2022-11-18T13:14:56;25.97;;;14.77;;
8279;SDS011;8335;42.646;23.380;2022-11-18T13:17:45;22.47;;;13.50;;
8279;SDS011;8335;42.646;23.380;2022-11-18T13:20:20;31.70;;;14.67;;
8279;SDS011;8335;42.646;23.380;2022-11-18T13:22:49;33.70;;;16.27;;
8279;SDS011;8335;42.646;23.380;2022-11-18T13:25:34;23.43;;;9.20;;
8279;SDS011;8335;42.646;23.380;2022-11-18T13:28:02;21.33;;;10.53;;
8279;SDS011;8335;42.646;23.380;2022-11-18T13:30:37;14.37;;;9.43;;
8279;SDS011;8335;42.646;23.380;2022-11-18T13:33:12;12.87;;;6.70;;
8279;SDS011;8335;42.646;23.380;2022-11-18T13:35:38;13.27;;;5.77;;
8279;SDS011;8335;42.646;23.380;2022-11-18T13:38:17;13.80;;;7.23;;
8279;SDS011;8335;42.646;23.380;2022-11-18T13:40:47;4.73;;;2.83;;
8279;SDS011;8335;42.646;23.380;2022-11-18T13:43:41;4.00;;;2.00;;
8279;SDS011;8335;42.646;23.380;2022-11-18T13:46:08;2.17;;;1.90;;
8279;SDS011;8335;42.646;23.380;2022-11-18T13:48:40;2.63;;;2.10;;
8279;SDS011;8335;42.646;23.380;2022-11-18T13:51:14;2.33;;;1.73;;
8279;SDS011;8335;42.646;23.380;2022-11-18T13:53:42;3.70;;;1.70;;
8279;SDS011;8335;42.646;23.380;2022-11-18T13:56:14;2.43;;;1.80;;
8279;SDS011;8335;42.646;23.380;2022-11-18T13:58:50;5.00;;;2.10;;
8279;SDS011;8335;42.646;23.380;2022-11-18T14:01:21;5.07;;;2.23;;
8279;SDS011;8335;42.646;23.380;2022-11-18T14:03:49;2.87;;;2.17;;
8279;SDS011;8335;42.646;23.380;2022-11-18T14:06:25;4.43;;;2.17;;
8279;SDS011;8335;42.646;23.380;2022-11-18T14:09:03;4.87;;;2.00;;
8279;SDS011;8335;42.646;23.380;2022-11-18T14:11:42;3.23;;;1.70;;
8279;SDS011;8335;42.646;23.380;2022-11-18T14:14:14;1.70;;;1.60;;
8279;SDS011;8335;42.646;23.380;2022-11-18T14:16:53;2.27;;;1.57;;
8279;SDS011;8335;42.646;23.380;2022-11-18T14:19:30;2.43;;;1.63;;
8279;SDS011;8335;42.646;23.380;2022-11-18T14:22:01;3.37;;;1.67;;
8279;SDS011;8335;42.646;23.380;2022-11-18T14:24:30;1.55;;;1.33;;
8279;SDS011;8335;42.646;23.380;2022-11-18T14:26:57;2.37;;;1.60;;
8279;SDS011;8335;42.646;23.380;2022-11-18T14:29:25;3.47;;;1.80;;
8279;SDS011;8335;42.646;23.380;2022-11-18T14:32:13;3.43;;;1.73;;
8279;SDS011;8335;42.646;23.380;2022-11-18T14:34:40;3.47;;;1.80;;
8279;SDS011;8335;42.646;23.380;2022-11-18T14:37:08;7.53;;;2.43;;
8279;SDS011;8335;42.646;23.380;2022-11-18T14:39:37;5.13;;;1.97;;
8279;SDS011;8335;42.646;23.380;2022-11-18T14:42:04;3.43;;;2.20;;
8279;SDS011;8335;42.646;23.380;2022-11-18T14:44:37;2.85;;;1.92;;
8279;SDS011;8335;42.646;23.380;2022-11-18T14:47:05;3.00;;;2.07;;
8279;SDS011;8335;42.646;23.380;2022-11-18T14:49:39;2.60;;;1.50;;
8279;SDS011;8335;42.646;23.380;2022-11-18T14:52:08;3.33;;;1.80;;
8279;SDS011;8335;42.646;23.380;2022-11-18T14:54:35;2.97;;;1.80;;
8279;SDS011;8335;42.646;23.380;2022-11-18T14:57:03;2.43;;;1.90;;
8279;SDS011;8335;42.646;23.380;2022-11-18T14:59:30;4.60;;;1.60;;
8279;SDS011;8335;42.646;23.380;2022-11-18T15:01:59;4.45;;;1.88;;
8279;SDS011;8335;42.646;23.380;2022-11-18T15:04:26;3.73;;;2.17;;
8279;SDS011;8335;42.646;23.380;2022-11-18T15:06:53;3.08;;;2.10;;
8279;SDS011;8335;42.646;23.380;2022-11-18T15:09:20;5.80;;;2.17;;
8279;SDS011;8335;42.646;23.380;2022-11-18T15:11:46;4.00;;;1.58;;
8279;SDS011;8335;42.646;23.380;2022-11-18T15:14:13;3.95;;;1.80;;
8279;SDS011;8335;42.646;23.380;2022-11-18T15:16:40;2.83;;;1.73;;
8279;SDS011;8335;42.646;23.380;2022-11-18T15:19:11;2.10;;;1.90;;
8279;SDS011;8335;42.646;23.380;2022-11-18T15:21:40;3.93;;;2.30;;
8279;SDS011;8335;42.646;23.380;2022-11-18T15:24:07;3.50;;;1.70;;
8279;SDS011;8335;42.646;23.380;2022-11-18T15:26:34;2.97;;;1.80;;
8279;SDS011;8335;42.646;23.380;2022-11-18T15:29:03;4.93;;;2.35;;
8279;SDS011;8335;42.646;23.380;2022-11-18T15:31:30;3.13;;;2.10;;